Arcadia, Texas
Current Conditions -  °F | °C
As of 9:53 PM on Thursday 27 Nov 2014 (Local Time) from KLVJ Reporting Station
Clear Clear  
Wind Chill: 43°   Ceiling: Unl
Heat Index: 47°   Visibility: 10mi
Dew Point: 41°   Wind: 8mph
Humidity: 80%   Direction: 90°E
Pressure: 30.44"   Gusts: NA
Location:  29.3723°N, 95.1328°W
Report Text: KLVJ 280353Z AUTO 09007KT 10SM CLR 08/05 A3044 RMK AO2 SLP306 T00830050
Loading
Personal Weather Stations






























Interactive Weather Map New forecast layout! Learn more

10-Day Weather Forecast

Advertisements
Track Severe Weather on mobile